createdAt,value
2023-05-13T00:01:10.769Z,100243.09
2023-05-13T00:03:38.129Z,100244.06
2023-05-13T00:06:04.949Z,100246.03
2023-05-13T00:08:31.667Z,100241.69
2023-05-13T00:10:58.272Z,100243.72
2023-05-13T00:13:24.907Z,100245.69
2023-05-13T00:15:51.481Z,100244.94
2023-05-13T00:18:18.297Z,100247.84
2023-05-13T00:20:45.041Z,100244.44
2023-05-13T00:23:11.711Z,100250.75
2023-05-13T00:25:38.440Z,100244.81
2023-05-13T00:28:05.154Z,100253.78
2023-05-13T00:30:31.716Z,100247.00
2023-05-13T00:32:58.685Z,100243.63
2023-05-13T00:35:25.435Z,100245.56
2023-05-13T00:37:52.116Z,100251.16
2023-05-13T00:40:23.869Z,100247.03
2023-05-13T00:42:51.562Z,100242.66
2023-05-13T00:45:18.570Z,100247.38
2023-05-13T00:47:45.600Z,100245.09
2023-05-13T00:50:13.575Z,100245.47
2023-05-13T00:52:41.522Z,100249.34
2023-05-13T00:55:09.546Z,100247.75
2023-05-13T00:57:37.223Z,100251.53
2023-05-13T01:00:05.857Z,100245.44
2023-05-13T01:02:39.218Z,100248.22
2023-05-13T01:05:38.350Z,100252.13
2023-05-13T01:08:36.814Z,100253.56
2023-05-13T01:11:03.418Z,100257.91
2023-05-13T01:13:39.813Z,100256.69
2023-05-13T01:16:06.596Z,100250.53
2023-05-13T01:18:52.511Z,100251.00
2023-05-13T01:21:26.929Z,100252.84
2023-05-13T01:23:53.684Z,100244.84
2023-05-13T01:26:22.375Z,100255.72
2023-05-13T01:28:49.387Z,100254.25
2023-05-13T01:31:16.194Z,100252.81
2023-05-13T01:33:43.788Z,100252.22
2023-05-13T01:36:10.571Z,100257.88
2023-05-13T01:38:38.072Z,100255.66
2023-05-13T01:41:04.766Z,100258.66
2023-05-13T01:43:31.444Z,100252.97
2023-05-13T01:46:00.638Z,100255.97
2023-05-13T01:48:27.368Z,100251.13
2023-05-13T01:50:55.122Z,100261.25
2023-05-13T01:53:21.627Z,100258.00
2023-05-13T01:55:48.105Z,100258.31
2023-05-13T01:58:14.690Z,100257.81
2023-05-13T02:00:41.293Z,100259.88
2023-05-13T02:03:07.991Z,100262.75
2023-05-13T02:05:34.713Z,100259.34
2023-05-13T02:08:01.256Z,100265.72
2023-05-13T02:10:27.873Z,100258.84
2023-05-13T02:12:54.426Z,100258.13
2023-05-13T02:15:21.086Z,100255.56
2023-05-13T02:17:47.637Z,100255.56
2023-05-13T02:20:14.755Z,100256.53
2023-05-13T02:22:41.184Z,100255.56
2023-05-13T02:25:08.329Z,100254.72
2023-05-13T02:27:34.928Z,100260.78
2023-05-13T02:30:01.506Z,100254.72
2023-05-13T02:32:28.188Z,100260.03
2023-05-13T02:34:54.761Z,100256.53
2023-05-13T02:37:21.363Z,100255.78
2023-05-13T02:39:47.874Z,100254.22
2023-05-13T02:42:14.397Z,100255.19
2023-05-13T02:44:41.461Z,100251.78
2023-05-13T02:47:08.040Z,100248.38
2023-05-13T02:49:34.618Z,100245.84
2023-05-13T02:52:01.177Z,100244.25
2023-05-13T02:54:28.243Z,100244.38
2023-05-13T02:56:54.786Z,100245.44
2023-05-13T02:59:21.328Z,100245.56
2023-05-13T03:01:47.994Z,100244.84
2023-05-13T03:04:14.682Z,100243.25
2023-05-13T03:06:41.242Z,100249.50
2023-05-13T03:09:07.772Z,100240.91
2023-05-13T03:11:36.735Z,100241.03
2023-05-13T03:14:03.339Z,100243.69
2023-05-13T03:16:29.951Z,100241.13
2023-05-13T03:18:56.584Z,100239.44
2023-05-13T03:21:23.127Z,100239.56
2023-05-13T03:23:49.719Z,100235.31
2023-05-13T03:26:16.693Z,100240.72
2023-05-13T03:28:43.350Z,100239.91
2023-05-13T03:31:09.863Z,100244.47
2023-05-13T03:33:36.529Z,100254.22
2023-05-13T03:36:03.152Z,100247.34
2023-05-13T03:38:29.648Z,100253.59
2023-05-13T03:40:56.188Z,100256.47
2023-05-13T03:43:22.857Z,100256.69
2023-05-13T03:45:50.762Z,100250.63
2023-05-13T03:48:17.717Z,100256.28
2023-05-13T03:50:44.487Z,100253.81
2023-05-13T03:53:11.928Z,100256.69
2023-05-13T03:55:38.600Z,100253.41
2023-05-13T03:58:15.561Z,100258.31
2023-05-13T04:00:43.468Z,100258.31
2023-05-13T04:03:10.460Z,100259.47
2023-05-13T04:05:37.272Z,100257.03
2023-05-13T04:08:04.001Z,100259.78
2023-05-13T04:10:30.554Z,100263.41
2023-05-13T04:12:57.041Z,100260.88
2023-05-13T04:15:23.633Z,100268.81
2023-05-13T04:17:51.103Z,100263.53
2023-05-13T04:20:18.035Z,100268.94
2023-05-13T04:22:44.541Z,100272.44
2023-05-13T04:25:11.482Z,100261.81
2023-05-13T04:27:37.916Z,100272.44
2023-05-13T04:30:05.034Z,100272.34
2023-05-13T04:32:31.919Z,100271.47
2023-05-13T04:34:58.762Z,100268.00
2023-05-13T04:37:25.556Z,100271.47
2023-05-13T04:39:52.196Z,100273.31
2023-05-13T04:42:18.735Z,100278.59
2023-05-13T04:44:45.330Z,100282.19
2023-05-13T04:47:11.973Z,100277.75
2023-05-13T04:49:38.468Z,100279.53
2023-05-13T04:52:06.493Z,100289.31
2023-05-13T04:54:35.442Z,100286.56
2023-05-13T04:57:02.740Z,100287.41
2023-05-13T04:59:29.346Z,100287.41
2023-05-13T05:01:56.211Z,100282.94
2023-05-13T05:04:22.862Z,100291.75
2023-05-13T05:06:49.440Z,100293.56
2023-05-13T05:09:16.100Z,100299.69
2023-05-13T05:11:42.646Z,100300.56
2023-05-13T05:14:09.210Z,100297.81
2023-05-13T05:16:35.876Z,100304.91
2023-05-13T05:19:02.534Z,100312.66
2023-05-13T05:21:29.170Z,100306.28
2023-05-13T05:23:55.772Z,100309.69
2023-05-13T05:26:22.370Z,100305.03
2023-05-13T05:28:49.006Z,100307.47
2023-05-13T05:31:15.637Z,100313.50
2023-05-13T05:33:42.472Z,100305.44
2023-05-13T05:36:09.152Z,100309.69
2023-05-13T05:38:36.121Z,100308.50
2023-05-13T05:41:02.760Z,100308.41
2023-05-13T05:43:29.399Z,100312.53
2023-05-13T05:45:56.021Z,100310.59
2023-05-13T05:48:22.614Z,100309.56
2023-05-13T05:50:49.367Z,100304.16
2023-05-13T05:53:15.983Z,100307.56
2023-05-13T05:55:42.637Z,100310.13
2023-05-13T05:58:10.186Z,100309.16
2023-05-13T06:00:36.759Z,100307.22
2023-05-13T06:03:03.489Z,100316.78
2023-05-13T06:05:30.243Z,100306.91
2023-05-13T06:07:56.961Z,100311.88
2023-05-13T06:10:23.858Z,100316.88
2023-05-13T06:12:51.413Z,100318.34
2023-05-13T06:15:17.956Z,100313.66
2023-05-13T06:17:44.555Z,100309.81
2023-05-13T06:20:11.693Z,100314.81
2023-05-13T06:22:38.306Z,100315.31
2023-05-13T06:25:05.533Z,100312.34
2023-05-13T06:30:01.465Z,100311.66
2023-05-13T06:32:27.993Z,100311.31
2023-05-13T06:34:55.953Z,100315.53
2023-05-13T06:37:22.756Z,100317.88
2023-05-13T06:39:49.548Z,100316.69
2023-05-13T06:42:16.130Z,100318.16
2023-05-13T06:44:42.545Z,100316.84
2023-05-13T06:47:11.910Z,100315.56
2023-05-13T06:49:38.472Z,100315.09
2023-05-13T06:52:05.280Z,100317.41
2023-05-13T06:54:32.061Z,100320.47
2023-05-13T06:56:58.601Z,100319.28
2023-05-13T06:59:25.322Z,100320.63
2023-05-13T07:01:51.884Z,100318.34
2023-05-13T07:04:18.403Z,100321.53
2023-05-13T07:06:44.974Z,100317.41
2023-05-13T07:09:11.505Z,100322.38
2023-05-13T07:11:38.029Z,100319.25
2023-05-13T07:14:04.576Z,100320.59
2023-05-13T07:16:31.031Z,100320.25
2023-05-13T07:18:57.655Z,100316.22
2023-05-13T07:21:24.188Z,100319.25
2023-05-13T07:23:50.739Z,100320.59
2023-05-13T07:26:17.255Z,100325.47
2023-05-13T07:28:43.792Z,100323.16
2023-05-13T07:31:10.457Z,100327.03
2023-05-13T07:33:37.111Z,100324.72
2023-05-13T07:36:03.915Z,100329.56
2023-05-13T07:38:30.360Z,100333.34
2023-05-13T07:40:56.887Z,100332.75
2023-05-13T07:43:27.823Z,100324.13
2023-05-13T07:45:54.415Z,100330.38
2023-05-13T07:48:20.910Z,100331.47
2023-05-13T07:50:47.717Z,100330.00
2023-05-13T07:53:14.321Z,100325.72
2023-05-13T07:55:41.389Z,100326.06
2023-05-13T07:58:07.802Z,100334.28
2023-05-13T08:00:34.291Z,100321.16
2023-05-13T08:03:00.910Z,100324.91
2023-05-13T08:05:27.564Z,100327.66
2023-05-13T08:07:54.052Z,100326.88
2023-05-13T08:10:21.127Z,100322.59
2023-05-13T08:12:52.110Z,100334.16
2023-05-13T08:15:19.162Z,100335.22
2023-05-13T08:17:45.765Z,100335.28
2023-05-13T08:20:12.448Z,100334.34
2023-05-13T08:22:38.928Z,100333.56
2023-05-13T08:25:05.902Z,100338.09
2023-05-13T08:27:32.441Z,100338.13
2023-05-13T08:29:58.949Z,100332.00
2023-05-13T08:32:25.575Z,100325.84
2023-05-13T08:34:52.161Z,100338.38
2023-05-13T08:37:18.731Z,100335.88
2023-05-13T08:39:45.734Z,100331.56
2023-05-13T08:42:15.144Z,100336.06
2023-05-13T08:44:43.711Z,100337.91
2023-05-13T08:47:44.073Z,100331.00
2023-05-13T08:50:12.549Z,100333.28
2023-05-13T08:52:39.868Z,100332.47
2023-05-13T08:55:08.179Z,100333.59
2023-05-13T08:57:34.700Z,100336.41
2023-05-13T09:00:01.334Z,100341.88
2023-05-13T09:02:27.927Z,100335.69
2023-05-13T09:04:56.103Z,100335.84
2023-05-13T09:07:22.758Z,100335.94
2023-05-13T09:09:49.896Z,100340.44
2023-05-13T09:12:58.267Z,100338.03
2023-05-13T09:15:26.552Z,100337.41
2023-05-13T09:18:11.593Z,100344.75
2023-05-13T09:20:38.531Z,100346.09
2023-05-13T09:23:10.738Z,100343.53
2023-05-13T09:25:38.556Z,100338.97
2023-05-13T09:28:07.723Z,100346.09
2023-05-13T09:30:40.240Z,100339.84
2023-05-13T09:33:09.462Z,100336.44
2023-05-13T09:35:38.059Z,100335.50
2023-05-13T09:38:14.725Z,100333.06
2023-05-13T09:40:42.111Z,100337.09
2023-05-13T09:43:08.687Z,100330.81
2023-05-13T09:45:36.319Z,100320.97
2023-05-13T09:48:03.132Z,100322.72
2023-05-13T09:50:31.582Z,100323.66
2023-05-13T09:52:58.116Z,100317.19
2023-05-13T09:55:24.596Z,100321.78
2023-05-13T09:57:53.367Z,100321.97
2023-05-13T10:00:29.240Z,100320.25
2023-05-13T10:03:01.243Z,100313.75
2023-05-13T10:05:27.882Z,100318.16
2023-05-13T10:07:55.545Z,100310.16
2023-05-13T10:10:22.371Z,100315.59
2023-05-13T10:12:50.623Z,100312.94
2023-05-13T10:15:19.101Z,100318.34
2023-05-13T10:17:46.986Z,100311.13
2023-05-13T10:20:14.652Z,100314.03
2023-05-13T10:22:41.909Z,100308.53
2023-05-13T10:25:09.214Z,100301.31
2023-05-13T10:27:35.840Z,100305.06
2023-05-13T10:30:05.869Z,100305.91
2023-05-13T10:32:32.562Z,100302.41
2023-05-13T10:35:17.508Z,100298.38
2023-05-13T10:38:02.834Z,100295.69
2023-05-13T10:40:44.617Z,100293.81
2023-05-13T10:43:32.765Z,100294.34
2023-05-13T10:46:06.600Z,100296.72
2023-05-13T10:48:43.539Z,100294.16
2023-05-13T10:51:14.461Z,100293.94
2023-05-13T10:53:47.895Z,100290.72
2023-05-13T10:56:15.521Z,100283.84
2023-05-13T10:58:42.308Z,100283.91
2023-05-13T11:01:16.317Z,100288.44
2023-05-13T11:03:52.328Z,100288.72
2023-05-13T11:06:24.529Z,100280.13
2023-05-13T11:08:55.756Z,100275.09
2023-05-13T11:11:28.771Z,100276.66
2023-05-13T11:13:55.137Z,100278.47
2023-05-13T11:16:25.783Z,100278.16
2023-05-13T11:18:53.209Z,100268.50
2023-05-13T11:21:31.037Z,100269.31
2023-05-13T11:23:58.601Z,100262.91
2023-05-13T11:26:25.607Z,100263.66
2023-05-13T11:28:57.741Z,100260.59
2023-05-13T11:31:26.039Z,100271.34
2023-05-13T11:34:12.100Z,100265.03
2023-05-13T11:36:40.482Z,100260.69
2023-05-13T11:39:14.362Z,100254.09
2023-05-13T11:41:43.499Z,100254.56
2023-05-13T11:44:11.825Z,100256.13
2023-05-13T11:46:38.337Z,100247.97
2023-05-13T11:49:07.257Z,100256.34
2023-05-13T11:51:34.443Z,100249.56
2023-05-13T11:54:04.565Z,100251.88
2023-05-13T11:56:31.223Z,100250.38
2023-05-13T11:59:14.678Z,100243.03
2023-05-13T12:01:41.537Z,100254.69
2023-05-13T12:04:08.664Z,100254.44
2023-05-13T12:06:35.711Z,100246.47
2023-05-13T12:09:06.759Z,100252.03
2023-05-13T12:11:33.920Z,100254.56
2023-05-13T12:14:01.154Z,100247.28
2023-05-13T12:16:28.118Z,100251.44
2023-05-13T12:19:06.867Z,100251.75
2023-05-13T12:21:34.669Z,100248.78
2023-05-13T12:24:01.253Z,100237.88
2023-05-13T12:26:27.844Z,100241.00
2023-05-13T12:31:24.376Z,100244.03
2023-05-13T12:33:51.573Z,100244.59
2023-05-13T12:36:20.680Z,100242.34
2023-05-13T12:39:01.476Z,100242.22
2023-05-13T12:41:36.180Z,100248.28
2023-05-13T12:44:10.629Z,100244.31
2023-05-13T12:46:37.581Z,100239.16
2023-05-13T12:49:05.801Z,100240.34
2023-05-13T12:51:35.642Z,100240.06
2023-05-13T12:54:02.248Z,100233.19
2023-05-13T12:56:28.664Z,100225.88
2023-05-13T12:58:55.286Z,100230.91
2023-05-13T13:01:22.385Z,100233.69
2023-05-13T13:03:49.174Z,100227.22
2023-05-13T13:06:15.896Z,100229.88
2023-05-13T13:08:42.393Z,100212.09
2023-05-13T13:11:09.315Z,100224.53
2023-05-13T13:13:38.101Z,100227.44
2023-05-13T13:16:06.180Z,100219.13
2023-05-13T13:18:32.706Z,100217.69
2023-05-13T13:20:59.167Z,100231.81
2023-05-13T13:23:25.710Z,100215.69
2023-05-13T13:25:52.202Z,100214.66
2023-05-13T13:28:18.781Z,100219.09
2023-05-13T13:30:48.429Z,100220.50
2023-05-13T13:33:16.173Z,100210.34
2023-05-13T13:35:44.445Z,100217.72
2023-05-13T13:38:11.078Z,100213.44
2023-05-13T13:40:37.543Z,100212.22
2023-05-13T13:43:05.676Z,100212.28
2023-05-13T13:45:32.266Z,100202.16
2023-05-13T13:47:59.361Z,100201.06
2023-05-13T13:50:26.213Z,100201.28
2023-05-13T13:52:52.741Z,100201.78
2023-05-13T13:55:23.277Z,100201.44
2023-05-13T13:57:50.692Z,100201.44
2023-05-13T14:00:17.351Z,100196.97
2023-05-13T14:02:44.113Z,100192.09
2023-05-13T14:05:11.593Z,100191.63
2023-05-13T14:07:38.146Z,100198.84
2023-05-13T14:10:05.915Z,100193.97
2023-05-13T14:12:32.537Z,100200.13
2023-05-13T14:14:59.762Z,100191.94
2023-05-13T14:17:26.291Z,100176.63
2023-05-13T14:19:55.049Z,100183.53
2023-05-13T14:22:24.840Z,100179.13
2023-05-13T14:24:52.294Z,100186.78
2023-05-13T14:27:19.627Z,100191.75
2023-05-13T14:29:47.577Z,100185.28
2023-05-13T14:32:14.609Z,100180.28
2023-05-13T14:34:41.236Z,100181.94
2023-05-13T14:37:07.777Z,100183.13
2023-05-13T14:39:34.508Z,100171.97
2023-05-13T14:42:01.590Z,100174.63
2023-05-13T14:44:28.226Z,100175.88
2023-05-13T14:46:55.051Z,100171.50
2023-05-13T14:49:21.656Z,100178.34
2023-05-13T14:51:48.149Z,100171.28
2023-05-13T14:54:14.572Z,100173.50
2023-05-13T14:56:41.535Z,100175.63
2023-05-13T14:59:08.275Z,100170.47
2023-05-13T15:01:34.808Z,100183.88
2023-05-13T15:04:01.502Z,100186.94
2023-05-13T15:06:29.107Z,100176.47
2023-05-13T15:08:56.437Z,100186.75
2023-05-13T15:11:23.183Z,100190.59
2023-05-13T15:13:49.732Z,100185.47
2023-05-13T15:16:16.245Z,100182.72
2023-05-13T15:18:42.925Z,100186.78
2023-05-13T15:21:09.463Z,100184.69
2023-05-13T15:23:35.984Z,100188.59
2023-05-13T15:26:02.492Z,100193.88
2023-05-13T15:28:29.157Z,100179.13
2023-05-13T15:30:55.927Z,100180.06
2023-05-13T15:33:22.405Z,100185.41
2023-05-13T15:35:48.976Z,100182.44
2023-05-13T15:38:15.402Z,100173.16
2023-05-13T15:40:41.863Z,100175.78
2023-05-13T15:43:08.331Z,100171.16
2023-05-13T15:45:34.834Z,100169.81
2023-05-13T15:48:01.253Z,100177.41
2023-05-13T15:50:27.775Z,100168.19
2023-05-13T15:52:54.722Z,100160.03
2023-05-13T15:55:22.178Z,100155.22
2023-05-13T15:57:50.300Z,100160.19
2023-05-13T16:00:17.963Z,100160.53
2023-05-13T16:02:44.667Z,100161.59
2023-05-13T16:05:11.945Z,100159.69
2023-05-13T16:07:38.432Z,100158.91
2023-05-13T16:10:05.152Z,100160.84
2023-05-13T16:12:31.588Z,100156.69
2023-05-13T16:14:57.993Z,100153.16
2023-05-13T16:17:24.469Z,100154.22
2023-05-13T16:19:51.012Z,100153.56
2023-05-13T16:22:29.065Z,100154.19
2023-05-13T16:25:00.767Z,100151.28
2023-05-13T16:27:28.279Z,100153.38
2023-05-13T16:29:56.169Z,100153.38
2023-05-13T16:32:22.992Z,100153.38
2023-05-13T16:34:49.670Z,100146.47
2023-05-13T16:37:16.218Z,100151.50
2023-05-13T16:39:42.808Z,100147.09
2023-05-13T16:42:09.578Z,100141.91
2023-05-13T16:44:36.095Z,100150.66
2023-05-13T16:47:02.819Z,100153.94
2023-05-13T16:49:29.448Z,100150.59
2023-05-13T16:51:55.959Z,100157.38
2023-05-13T16:54:22.384Z,100164.94
2023-05-13T16:56:50.417Z,100170.47
2023-05-13T16:59:24.487Z,100176.44
2023-05-13T17:01:52.358Z,100180.53
2023-05-13T17:04:19.818Z,100182.81
2023-05-13T17:06:46.394Z,100175.69
2023-05-13T17:09:12.966Z,100166.78
2023-05-13T17:11:39.586Z,100167.63
2023-05-13T17:14:06.498Z,100160.56
2023-05-13T17:16:33.472Z,100159.53
2023-05-13T17:19:00.119Z,100152.69
2023-05-13T17:21:26.809Z,100157.97
2023-05-13T17:23:53.500Z,100156.66
2023-05-13T17:26:21.695Z,100158.03
2023-05-13T17:28:48.935Z,100156.38
2023-05-13T17:31:15.503Z,100163.59
2023-05-13T17:33:42.124Z,100159.06
2023-05-13T17:36:08.749Z,100152.50
2023-05-13T17:38:35.261Z,100156.75
2023-05-13T17:41:01.865Z,100148.47
2023-05-13T17:43:28.390Z,100156.22
2023-05-13T17:45:54.850Z,100154.22
2023-05-13T17:48:21.463Z,100152.03
2023-05-13T17:50:48.013Z,100151.53
2023-05-13T17:53:14.556Z,100160.63
2023-05-13T17:55:41.065Z,100156.44
2023-05-13T17:58:07.573Z,100160.09
2023-05-13T18:00:34.076Z,100155.09
2023-05-13T18:03:00.735Z,100159.78
2023-05-13T18:05:27.597Z,100160.78
2023-05-13T18:07:54.241Z,100156.75
2023-05-13T18:10:21.193Z,100155.41
2023-05-13T18:12:48.014Z,100161.25
2023-05-13T18:15:14.636Z,100160.75
2023-05-13T18:17:41.215Z,100160.41
2023-05-13T18:20:08.354Z,100167.13
2023-05-13T18:22:35.018Z,100167.59
2023-05-13T18:25:01.563Z,100166.44
2023-05-13T18:27:28.122Z,100171.13
